Time;durP1;ratioP1;P1;durP2;ratioP2;P2;SDS_P1;SDS_P2;PMS_P1;PMS_P2;Temp;Humidity;BMP_temperature;BMP_pressure;BME280_temperature;BME280_humidity;BME280_pressure;Samples;Min_cycle;Max_cycle;Signal;HPM_P1;HPM_P2
2021/07/02 00:00:29;;;;;;;;;46.00;37.50;;;;;-147.17;100.00;59696.56;4993480;28;50994;-59
2021/07/02 00:02:54;;;;;;;;;44.25;37.50;;;;;-147.17;100.00;59696.56;4978814;28;50939;-59
2021/07/02 00:05:19;;;;;;;;;44.00;38.00;;;;;-147.17;100.00;59696.56;4956563;28;51157;-59
2021/07/02 00:07:45;;;;;;;;;42.25;36.75;;;;;-147.17;100.00;59696.56;4989274;28;51029;-59
2021/07/02 00:10:11;;;;;;;;;47.50;40.00;;;;;-147.17;100.00;59696.56;4991931;28;51122;-59
2021/07/02 00:12:37;;;;;;;;;45.25;37.75;;;;;-147.17;100.00;59696.56;4973446;28;51137;-59
2021/07/02 00:15:04;;;;;;;;;42.00;37.00;;;;;-147.17;100.00;59696.56;4986250;28;51172;-59
2021/07/02 00:17:29;;;;;;;;;42.25;36.25;;;;;-147.17;100.00;59696.56;4992731;28;52432;-58
2021/07/02 00:19:55;;;;;;;;;45.50;38.25;;;;;-147.17;100.00;59696.56;4991512;28;51746;-59
2021/07/02 00:22:20;;;;;;;;;45.25;38.00;;;;;-147.17;100.00;59696.56;4974803;28;51348;-60
2021/07/02 00:24:45;;;;;;;;;47.25;39.00;;;;;-147.17;100.00;59696.56;4992889;28;51173;-59
2021/07/02 00:27:11;;;;;;;;;45.00;37.75;;;;;-147.17;100.00;59696.56;4991046;28;50985;-59
2021/07/02 00:29:37;;;;;;;;;47.25;39.50;;;;;-147.17;100.00;59696.56;4980727;28;50974;-60
2021/07/02 00:32:03;;;;;;;;;50.25;40.25;;;;;-147.17;100.00;59696.56;4972789;28;51311;-60
2021/07/02 00:34:28;;;;;;;;;42.50;37.00;;;;;-147.17;100.00;59696.56;4955560;28;50981;-60
2021/07/02 00:36:53;;;;;;;;;41.00;36.50;;;;;-147.17;100.00;59696.56;4992860;28;51970;-60
2021/07/02 00:39:19;;;;;;;;;47.75;40.00;;;;;-147.17;100.00;59696.56;4988239;28;50894;-58
2021/07/02 00:41:44;;;;;;;;;49.00;41.25;;;;;-147.17;100.00;59696.56;4977667;28;51219;-59
2021/07/02 00:44:09;;;;;;;;;47.25;39.50;;;;;-147.17;100.00;59696.56;4973184;28;50863;-59
2021/07/02 00:46:35;;;;;;;;;48.25;40.00;;;;;-147.17;100.00;59696.56;4954711;28;51080;-59
2021/07/02 00:49:00;;;;;;;;;44.50;38.25;;;;;-147.17;100.00;59696.56;4973014;28;51044;-58
2021/07/02 00:51:30;;;;;;;;;47.00;39.25;;;;;-147.17;100.00;59696.56;4972737;28;51002;-59
2021/07/02 00:53:56;;;;;;;;;50.00;41.50;;;;;-147.17;100.00;59696.56;4977873;28;52179;-59
2021/07/02 00:56:22;;;;;;;;;48.25;40.75;;;;;-147.17;100.00;59696.56;4973591;28;52410;-59
2021/07/02 00:58:47;;;;;;;;;50.00;42.25;;;;;-147.17;100.00;59696.56;4978525;28;50968;-59
2021/07/02 01:01:16;;;;;;;;;49.25;40.25;;;;;-147.17;100.00;59696.56;4972454;28;51034;-60
2021/07/02 01:03:47;;;;;;;;;50.00;43.00;;;;;-147.17;100.00;59696.56;4972877;28;51228;-59
2021/07/02 01:06:13;;;;;;;;;51.00;41.00;;;;;-147.17;100.00;59696.56;4972345;28;51125;-59
2021/07/02 01:08:40;;;;;;;;;49.25;42.00;;;;;-147.17;100.00;59696.56;4954782;28;51081;-59
2021/07/02 01:11:07;;;;;;;;;48.00;40.25;;;;;-147.17;100.00;59696.56;4978191;28;51851;-60
2021/07/02 01:13:32;;;;;;;;;45.75;39.50;;;;;-147.17;100.00;59696.56;4990417;28;51328;-59
2021/07/02 01:15:58;;;;;;;;;51.75;43.00;;;;;-147.17;100.00;59696.56;4991764;28;51357;-59
2021/07/02 01:18:23;;;;;;;;;47.75;40.00;;;;;-147.17;100.00;59696.56;4981871;28;51168;-59
2021/07/02 01:20:50;;;;;;;;;46.50;39.75;;;;;-147.17;100.00;59696.56;4982496;28;50927;-59
2021/07/02 01:23:16;;;;;;;;;49.50;41.25;;;;;-147.17;100.00;59696.56;4976725;28;51355;-59
2021/07/02 01:25:42;;;;;;;;;53.00;43.50;;;;;-147.17;100.00;59696.56;4954412;28;52116;-59
2021/07/02 01:28:08;;;;;;;;;49.25;41.00;;;;;-147.17;100.00;59696.56;4971626;28;51101;-59
2021/07/02 01:30:34;;;;;;;;;47.25;39.75;;;;;-147.17;100.00;59696.56;4981010;28;51292;-59
2021/07/02 01:33:00;;;;;;;;;49.00;41.25;;;;;-147.17;100.00;59696.56;4972465;28;51071;-59
2021/07/02 01:35:25;;;;;;;;;46.00;39.00;;;;;-147.17;100.00;59696.56;4980637;28;51023;-59
2021/07/02 01:37:50;;;;;;;;;45.00;38.50;;;;;-147.17;100.00;59696.56;4997052;28;51157;-59
2021/07/02 01:40:16;;;;;;;;;47.75;40.50;;;;;-147.17;100.00;59696.56;4972240;28;51106;-59
2021/07/02 01:42:41;;;;;;;;;47.00;40.25;;;;;-147.17;100.00;59696.56;4972469;28;51184;-59
2021/07/02 01:45:08;;;;;;;;;48.50;40.75;;;;;-147.17;100.00;59696.56;4971863;28;57340;-59
2021/07/02 01:47:33;;;;;;;;;49.25;40.25;;;;;-147.17;100.00;59696.56;4954218;28;51223;-59
2021/07/02 01:50:00;;;;;;;;;48.75;39.75;;;;;-147.17;100.00;59696.56;4972163;28;51022;-59
2021/07/02 01:52:26;;;;;;;;;50.75;42.25;;;;;-147.17;100.00;59696.56;4954824;28;51087;-59
2021/07/02 01:54:51;;;;;;;;;46.75;39.50;;;;;-147.17;100.00;59696.56;4971579;28;53096;-59
2021/07/02 01:57:26;;;;;;;;;50.25;42.75;;;;;-147.17;100.00;59696.56;4971799;28;51075;-59
2021/07/02 01:59:52;;;;;;;;;46.00;38.50;;;;;-147.17;100.00;59696.56;4972151;28;51168;-59
2021/07/02 02:02:17;;;;;;;;;50.00;41.50;;;;;-147.17;100.00;59696.56;4972099;28;51184;-58
2021/07/02 02:04:43;;;;;;;;;45.00;38.00;;;;;-147.17;100.00;59696.56;4970433;28;51830;-59
2021/07/02 02:07:08;;;;;;;;;49.75;40.50;;;;;-147.17;100.00;59696.56;4976104;28;51127;-61
2021/07/02 02:09:34;;;;;;;;;45.50;38.00;;;;;-147.17;100.00;59696.56;4981897;28;51165;-59
2021/07/02 02:12:00;;;;;;;;;44.50;37.50;;;;;-147.17;100.00;59696.56;4974721;28;50911;-59
2021/07/02 02:14:25;;;;;;;;;44.25;38.00;;;;;-147.17;100.00;59696.56;4985124;28;52434;-59
2021/07/02 02:16:51;;;;;;;;;45.50;38.25;;;;;-147.17;100.00;59696.56;4975184;28;51019;-59
2021/07/02 02:19:16;;;;;;;;;46.75;39.50;;;;;-147.17;100.00;59696.56;4963597;28;51242;-59
2021/07/02 02:21:42;;;;;;;;;47.75;40.00;;;;;-147.17;100.00;59696.56;4989825;28;51140;-59
2021/07/02 02:24:07;;;;;;;;;45.00;38.00;;;;;-147.17;100.00;59696.56;4974632;28;52241;-59
2021/07/02 02:26:32;;;;;;;;;45.00;39.00;;;;;-147.17;100.00;59696.56;4974758;28;51054;-59
2021/07/02 02:28:58;;;;;;;;;47.50;38.75;;;;;-147.17;100.00;59696.56;4983601;28;51200;-60
2021/07/02 02:31:23;;;;;;;;;48.00;41.00;;;;;-147.17;100.00;59696.56;4994691;28;51053;-59
2021/07/02 02:33:49;;;;;;;;;46.75;39.50;;;;;-147.17;100.00;59696.56;4985338;28;50999;-59
2021/07/02 02:36:14;;;;;;;;;46.00;39.25;;;;;-147.17;100.00;59696.56;4994863;28;51120;-59
2021/07/02 02:38:39;;;;;;;;;44.75;37.75;;;;;-147.17;100.00;59696.56;4992738;28;51127;-59
2021/07/02 02:41:05;;;;;;;;;45.50;38.25;;;;;-147.17;100.00;59696.56;4975169;28;51414;-59
2021/07/02 02:43:30;;;;;;;;;45.50;39.00;;;;;-147.17;100.00;59696.56;4979188;28;51547;-59
2021/07/02 02:45:55;;;;;;;;;45.75;39.50;;;;;-147.17;100.00;59696.56;4974630;28;51096;-59
2021/07/02 02:48:21;;;;;;;;;45.75;38.25;;;;;-147.17;100.00;59696.56;4957162;28;51016;-59
2021/07/02 02:50:46;;;;;;;;;46.75;40.00;;;;;-147.17;100.00;59696.56;4974712;28;51215;-59
2021/07/02 02:53:12;;;;;;;;;47.75;39.75;;;;;-147.17;100.00;59696.56;4974459;28;52074;-59
2021/07/02 02:55:37;;;;;;;;;46.75;39.25;;;;;-147.17;100.00;59696.56;4974665;28;51107;-59
2021/07/02 02:58:03;;;;;;;;;48.25;40.00;;;;;-147.17;100.00;59696.56;4974559;28;51210;-62
2021/07/02 03:00:28;;;;;;;;;48.75;40.50;;;;;-147.17;100.00;59696.56;4988229;28;51156;-59
2021/07/02 03:02:53;;;;;;;;;49.50;41.75;;;;;-147.17;100.00;59696.56;4956612;28;56661;-61
2021/07/02 03:05:18;;;;;;;;;47.25;39.25;;;;;-147.17;100.00;59696.56;4956685;28;50938;-58
2021/07/02 03:07:44;;;;;;;;;50.25;42.25;;;;;-147.17;100.00;59696.56;4974387;28;51077;-58
2021/07/02 03:10:10;;;;;;;;;46.00;39.00;;;;;-147.17;100.00;59696.56;4974644;28;50908;-58
2021/07/02 03:12:36;;;;;;;;;47.00;40.00;;;;;-147.17;100.00;59696.56;4956728;28;51381;-58
2021/07/02 03:15:02;;;;;;;;;48.50;41.00;;;;;-147.17;100.00;59696.56;4974812;28;51008;-59
2021/07/02 03:17:27;;;;;;;;;50.00;42.25;;;;;-147.17;100.00;59696.56;4974088;28;51231;-59
2021/07/02 03:19:52;;;;;;;;;48.50;39.75;;;;;-147.17;100.00;59696.56;4993012;28;51041;-59
2021/07/02 03:22:18;;;;;;;;;49.50;41.75;;;;;-147.17;100.00;59696.56;4984576;28;51861;-58
2021/07/02 03:24:43;;;;;;;;;49.50;40.50;;;;;-147.17;100.00;59696.56;4993568;28;51214;-58
2021/07/02 03:27:09;;;;;;;;;50.00;42.75;;;;;-147.17;100.00;59696.56;4993510;28;51283;-57
2021/07/02 03:29:36;;;;;;;;;52.00;42.00;;;;;-147.17;100.00;59696.56;4993967;28;51167;-59
2021/07/02 03:32:01;;;;;;;;;49.00;41.00;;;;;-147.17;100.00;59696.56;4963682;28;52155;-59
2021/07/02 03:34:27;;;;;;;;;50.00;41.25;;;;;-147.17;100.00;59696.56;4973514;28;51098;-58
2021/07/02 03:36:52;;;;;;;;;50.00;42.25;;;;;-147.17;100.00;59696.56;4977023;28;51240;-57
2021/07/02 03:39:17;;;;;;;;;48.25;40.00;;;;;-147.17;100.00;59696.56;4994440;28;51389;-59
2021/07/02 03:41:43;;;;;;;;;49.00;41.00;;;;;-147.17;100.00;59696.56;4973522;28;51633;-59
2021/07/02 03:44:08;;;;;;;;;49.25;40.75;;;;;-147.17;100.00;59696.56;4982540;28;50907;-59
2021/07/02 03:46:33;;;;;;;;;48.25;40.75;;;;;-147.17;100.00;59696.56;4986553;28;51062;-59
2021/07/02 03:48:59;;;;;;;;;47.75;40.00;;;;;-147.17;100.00;59696.56;4974359;28;50995;-59
2021/07/02 03:51:24;;;;;;;;;53.75;44.00;;;;;-147.17;100.00;59696.56;4973445;28;50970;-57
2021/07/02 03:53:49;;;;;;;;;52.75;43.75;;;;;-147.17;100.00;59696.56;4973775;28;51024;-58
2021/07/02 03:56:15;;;;;;;;;46.75;39.00;;;;;-147.17;100.00;59696.56;4973867;28;51179;-57
2021/07/02 03:58:40;;;;;;;;;46.75;39.75;;;;;-147.17;100.00;59696.56;4973897;28;51136;-58
2021/07/02 04:01:06;;;;;;;;;52.00;41.50;;;;;-147.17;100.00;59696.56;4978407;28;53396;-58
2021/07/02 04:03:32;;;;;;;;;49.50;40.75;;;;;-147.17;100.00;59696.56;4985582;28;50919;-58
2021/07/02 04:05:59;;;;;;;;;49.00;42.00;;;;;-147.17;100.00;59696.56;4973625;28;51184;-59
2021/07/02 04:08:24;;;;;;;;;54.00;44.00;;;;;-147.17;100.00;59696.56;4973522;28;51185;-58
2021/07/02 04:10:50;;;;;;;;;47.00;39.50;;;;;-147.17;100.00;59696.56;4973369;28;52187;-59
2021/07/02 04:13:15;;;;;;;;;50.50;40.50;;;;;-147.17;100.00;59696.56;4955922;28;51003;-58
2021/07/02 04:15:41;;;;;;;;;48.00;40.00;;;;;-147.17;100.00;59696.56;4973399;28;51157;-58
2021/07/02 04:18:07;;;;;;;;;50.75;42.25;;;;;-147.17;100.00;59696.56;4985360;28;51169;-58
2021/07/02 04:20:34;;;;;;;;;48.50;40.00;;;;;-147.17;100.00;59696.56;4985139;28;52109;-57
2021/07/02 04:22:59;;;;;;;;;52.00;44.00;;;;;-147.17;100.00;59696.56;4959214;28;51077;-57
2021/07/02 04:25:25;;;;;;;;;49.25;41.75;;;;;-147.17;100.00;59696.56;4993357;28;50990;-60
2021/07/02 04:27:50;;;;;;;;;52.75;43.75;;;;;-147.17;100.00;59696.56;4992888;28;51072;-60
2021/07/02 04:30:16;;;;;;;;;49.00;40.00;;;;;-147.17;100.00;59696.56;4988109;28;51051;-59
2021/07/02 04:32:42;;;;;;;;;48.75;40.50;;;;;-147.17;100.00;59696.56;4974983;28;50963;-59
2021/07/02 04:35:09;;;;;;;;;47.00;40.00;;;;;-147.17;100.00;59696.56;4992105;28;51107;-59
2021/07/02 04:37:38;;;;;;;;;48.25;39.50;;;;;-147.17;100.00;59696.56;4998858;28;51232;-59
2021/07/02 04:40:06;;;;;;;;;54.25;44.50;;;;;-147.17;100.00;59696.56;4972961;28;51155;-59
2021/07/02 04:42:32;;;;;;;;;48.00;40.25;;;;;-147.17;100.00;59696.56;4972747;28;51119;-60
2021/07/02 04:44:57;;;;;;;;;49.00;40.50;;;;;-147.17;100.00;59696.56;4973012;28;51088;-59
2021/07/02 04:47:23;;;;;;;;;47.00;39.50;;;;;-147.17;100.00;59696.56;4975836;28;51046;-59
2021/07/02 04:49:48;;;;;;;;;48.25;41.00;;;;;-147.17;100.00;59696.56;4992309;28;51750;-58
2021/07/02 04:52:14;;;;;;;;;50.75;43.00;;;;;-147.17;100.00;59696.56;4992531;28;51027;-58
2021/07/02 04:54:39;;;;;;;;;48.00;39.75;;;;;-147.17;100.00;59696.56;4984732;28;51210;-59
2021/07/02 04:57:05;;;;;;;;;47.75;40.75;;;;;-147.17;100.00;59696.56;4986523;28;51399;-59
2021/07/02 04:59:36;;;;;;;;;49.00;40.50;;;;;-147.17;100.00;59696.56;4973260;28;52141;-59
2021/07/02 05:02:02;;;;;;;;;48.25;39.75;;;;;-147.17;100.00;59696.56;4972872;28;51085;-59
2021/07/02 05:04:27;;;;;;;;;48.25;40.50;;;;;-147.17;100.00;59696.56;4959050;28;51157;-59
2021/07/02 05:06:53;;;;;;;;;51.50;42.50;;;;;-147.17;100.00;59696.56;4988533;28;51687;-59
2021/07/02 05:09:19;;;;;;;;;50.75;43.25;;;;;-147.17;100.00;59696.56;4967551;28;52856;-59
2021/07/02 05:11:44;;;;;;;;;50.00;41.75;;;;;-147.17;100.00;59696.56;4977987;28;51020;-59
2021/07/02 05:14:10;;;;;;;;;51.50;41.00;;;;;-147.17;100.00;59696.56;4972619;28;51683;-59
2021/07/02 05:16:35;;;;;;;;;49.00;40.75;;;;;-147.17;100.00;59696.56;4973004;28;51067;-60
2021/07/02 05:19:00;;;;;;;;;51.00;42.25;;;;;-147.17;100.00;59696.56;4984225;28;51095;-58
2021/07/02 05:21:26;;;;;;;;;48.75;40.50;;;;;-147.17;100.00;59696.56;4964181;28;51442;-59
2021/07/02 05:23:52;;;;;;;;;50.50;42.75;;;;;-147.17;100.00;59696.56;4967750;28;51041;-58
2021/07/02 05:26:17;;;;;;;;;50.00;41.25;;;;;-147.17;100.00;59696.56;4996203;28;51182;-58
2021/07/02 05:28:43;;;;;;;;;51.50;42.75;;;;;-147.17;100.00;59696.56;4988225;28;51351;-59
2021/07/02 05:31:08;;;;;;;;;49.50;41.50;;;;;-147.17;100.00;59696.56;4990711;28;51037;-58
2021/07/02 05:33:34;;;;;;;;;48.75;40.50;;;;;-147.17;100.00;59696.56;4991062;28;51686;-58
2021/07/02 05:36:00;;;;;;;;;52.50;43.50;;;;;-147.17;100.00;59696.56;4991472;28;51091;-58
2021/07/02 05:38:25;;;;;;;;;50.00;42.50;;;;;-147.17;100.00;59696.56;4986532;28;52380;-59
2021/07/02 05:40:54;;;;;;;;;47.75;40.25;;;;;-147.17;100.00;59696.56;4991246;28;51229;-59
2021/07/02 05:43:21;;;;;;;;;49.50;41.75;;;;;-147.17;100.00;59696.56;4989040;28;51338;-59
2021/07/02 05:45:46;;;;;;;;;51.25;41.50;;;;;-147.17;100.00;59696.56;4982902;28;51248;-59
2021/07/02 05:48:16;;;;;;;;;50.00;41.00;;;;;-147.17;100.00;59696.56;4991978;28;51120;-59
2021/07/02 05:50:41;;;;;;;;;53.50;43.25;;;;;-147.17;100.00;59696.56;4979038;28;51170;-60
2021/07/02 05:53:07;;;;;;;;;47.00;40.25;;;;;-147.17;100.00;59696.56;4981000;28;50963;-58
2021/07/02 05:55:32;;;;;;;;;49.50;42.25;;;;;-147.17;100.00;59696.56;4979534;28;51196;-59
2021/07/02 05:57:57;;;;;;;;;47.75;39.50;;;;;-147.17;100.00;59696.56;4994158;28;52174;-59
2021/07/02 06:00:23;;;;;;;;;48.25;40.50;;;;;-147.17;100.00;59696.56;4975291;28;51125;-59
2021/07/02 06:02:48;;;;;;;;;52.50;42.00;;;;;-147.17;100.00;59696.56;4975308;28;51369;-59
2021/07/02 06:05:14;;;;;;;;;48.75;41.25;;;;;-147.17;100.00;59696.56;4990481;28;51117;-59
2021/07/02 06:07:51;;;;;;;;;48.00;40.00;;;;;-147.17;100.00;59696.56;4988870;28;51917;-61
2021/07/02 06:10:19;;;;;;;;;52.50;43.50;;;;;-147.17;100.00;59696.56;4975224;28;51277;-59
2021/07/02 06:12:45;;;;;;;;;48.75;41.00;;;;;-147.17;100.00;59696.56;4974991;28;51137;-59
2021/07/02 06:15:12;;;;;;;;;47.50;40.50;;;;;-147.17;100.00;59696.56;4975609;28;51214;-59
2021/07/02 06:17:39;;;;;;;;;45.00;39.00;;;;;-147.17;100.00;59696.56;4976912;28;52106;-60
2021/07/02 06:20:05;;;;;;;;;50.00;40.75;;;;;-147.17;100.00;59696.56;4987921;28;51150;-58
2021/07/02 06:22:31;;;;;;;;;47.25;39.50;;;;;-147.17;100.00;59696.56;4962913;28;51374;-60
2021/07/02 06:24:56;;;;;;;;;48.00;38.50;;;;;-147.17;100.00;59696.56;4993952;28;51212;-59
2021/07/02 06:27:21;;;;;;;;;52.25;43.00;;;;;-147.17;100.00;59696.56;4993076;28;51039;-60
2021/07/02 06:29:47;;;;;;;;;49.25;40.25;;;;;-147.17;100.00;59696.56;4989343;28;51295;-60
2021/07/02 06:32:12;;;;;;;;;49.75;40.50;;;;;-147.17;100.00;59696.56;4988660;28;51303;-58
2021/07/02 06:34:38;;;;;;;;;47.00;39.50;;;;;-147.17;100.00;59696.56;4988982;28;51341;-60
2021/07/02 06:37:03;;;;;;;;;47.50;40.50;;;;;-147.17;100.00;59696.56;4994164;28;51941;-59
2021/07/02 06:39:29;;;;;;;;;50.00;41.50;;;;;-147.17;100.00;59696.56;4972840;28;51113;-60
2021/07/02 06:41:54;;;;;;;;;50.50;42.50;;;;;-147.17;100.00;59696.56;4961112;28;51494;-59
2021/07/02 06:44:19;;;;;;;;;47.75;39.50;;;;;-147.17;100.00;59696.56;4982657;28;51379;-59
2021/07/02 06:46:45;;;;;;;;;48.75;40.75;;;;;-147.17;100.00;59696.56;4990575;28;52101;-60
2021/07/02 06:49:10;;;;;;;;;47.50;38.75;;;;;-147.17;100.00;59696.56;4990563;28;51168;-59
2021/07/02 06:51:37;;;;;;;;;44.50;37.75;;;;;-147.17;100.00;59696.56;4991010;28;51708;-60
2021/07/02 06:54:03;;;;;;;;;48.75;41.00;;;;;-147.17;100.00;59696.56;4976636;28;51353;-59
2021/07/02 06:56:29;;;;;;;;;46.25;39.00;;;;;-147.17;100.00;59696.56;4973818;28;51286;-59
2021/07/02 06:58:56;;;;;;;;;49.50;41.50;;;;;-147.17;100.00;59696.56;4973740;28;51082;-59
2021/07/02 07:01:22;;;;;;;;;48.25;39.50;;;;;-147.17;100.00;59696.56;4978860;28;51223;-60
2021/07/02 07:03:47;;;;;;;;;49.00;41.00;;;;;-147.17;100.00;59696.56;4977383;28;51059;-59
2021/07/02 07:06:13;;;;;;;;;48.50;41.00;;;;;-147.17;100.00;59696.56;4974090;28;51745;-59
2021/07/02 07:08:38;;;;;;;;;47.00;39.50;;;;;-147.17;100.00;59696.56;4973697;28;51155;-59
2021/07/02 07:11:04;;;;;;;;;48.75;41.50;;;;;-147.17;100.00;59696.56;4974039;28;51386;-60
2021/07/02 07:13:29;;;;;;;;;52.50;42.50;;;;;-147.17;100.00;59696.56;4976829;28;51097;-59
2021/07/02 07:15:55;;;;;;;;;47.75;40.25;;;;;-147.17;100.00;59696.56;4981624;28;51890;-60
2021/07/02 07:18:20;;;;;;;;;44.50;38.00;;;;;-147.17;100.00;59696.56;4983251;28;51057;-59
2021/07/02 07:20:45;;;;;;;;;51.50;42.25;;;;;-147.17;100.00;59696.56;4982808;28;51641;-60
2021/07/02 07:23:11;;;;;;;;;48.25;41.75;;;;;-147.17;100.00;59696.56;4973559;28;51265;-60
2021/07/02 07:25:37;;;;;;;;;47.75;39.50;;;;;-147.17;100.00;59696.56;4973867;28;53084;-60
2021/07/02 07:28:03;;;;;;;;;43.25;37.75;;;;;-147.17;100.00;59696.56;4989442;28;51045;-60
2021/07/02 07:30:28;;;;;;;;;46.00;39.75;;;;;-147.17;100.00;59696.56;4993130;28;51187;-60
2021/07/02 07:32:55;;;;;;;;;47.50;41.00;;;;;-147.17;100.00;59696.56;4975773;28;51030;-60
2021/07/02 07:37:49;;;;;;;;;46.25;38.75;;;;;-147.17;100.00;59696.56;4996643;28;51192;-60
2021/07/02 07:40:15;;;;;;;;;43.00;37.75;;;;;-147.17;100.00;59696.56;4974177;28;51063;-59
2021/07/02 07:42:40;;;;;;;;;42.00;36.25;;;;;-147.17;100.00;59696.56;4973800;28;51235;-59
2021/07/02 07:45:06;;;;;;;;;43.25;37.25;;;;;-147.17;100.00;59696.56;4974016;28;52063;-60
2021/07/02 07:47:31;;;;;;;;;40.25;35.25;;;;;-147.17;100.00;59696.56;4957227;28;51076;-59
2021/07/02 07:49:57;;;;;;;;;44.50;37.75;;;;;-147.17;100.00;59696.56;4973549;28;51618;-59
2021/07/02 07:52:36;;;;;;;;;43.75;36.00;;;;;-147.17;100.00;59696.56;4981906;28;51276;-60
2021/07/02 07:55:03;;;;;;;;;41.25;34.75;;;;;-147.17;100.00;59696.56;4977133;28;52209;-59
2021/07/02 07:57:28;;;;;;;;;33.75;31.75;;;;;-147.17;100.00;59696.56;4988007;28;51029;-60
2021/07/02 07:59:54;;;;;;;;;34.75;32.25;;;;;-147.17;100.00;59696.56;4955369;28;51506;-59
2021/07/02 08:02:19;;;;;;;;;31.75;30.00;;;;;-147.17;100.00;59696.56;4973360;28;51019;-59
2021/07/02 08:04:44;;;;;;;;;35.75;32.25;;;;;-147.17;100.00;59696.56;4972901;28;52038;-59
2021/07/02 08:07:10;;;;;;;;;36.25;33.25;;;;;-147.17;100.00;59696.56;4974969;28;51372;-58
2021/07/02 08:09:35;;;;;;;;;39.00;32.75;;;;;-147.17;100.00;59696.56;4978428;28;50987;-60
2021/07/02 08:12:00;;;;;;;;;37.25;33.25;;;;;-147.17;100.00;59696.56;4975479;28;51382;-60
2021/07/02 08:14:26;;;;;;;;;34.75;31.75;;;;;-147.17;100.00;59696.56;4973020;28;51955;-59
2021/07/02 08:16:51;;;;;;;;;31.75;29.25;;;;;-147.17;100.00;59696.56;4978984;28;51182;-60
2021/07/02 08:19:17;;;;;;;;;28.75;26.50;;;;;-147.17;100.00;59696.56;4980283;28;51059;-59
2021/07/02 08:21:42;;;;;;;;;32.00;29.75;;;;;-147.17;100.00;59696.56;4981960;28;51156;-59
2021/07/02 08:24:08;;;;;;;;;30.50;29.50;;;;;-147.17;100.00;59696.56;4979825;28;51119;-59
2021/07/02 08:26:33;;;;;;;;;31.50;30.25;;;;;-147.17;100.00;59696.56;4975387;28;51103;-58
2021/07/02 08:31:42;;;;;;;;;37.25;33.00;;;;;-147.17;100.00;59696.56;4992349;28;51157;-59
2021/07/02 08:34:08;;;;;;;;;30.75;29.00;;;;;-147.17;100.00;59696.56;4962201;28;51774;-58
2021/07/02 08:36:33;;;;;;;;;28.50;27.50;;;;;-147.17;100.00;59696.56;4986229;28;51060;-54
2021/07/02 08:38:59;;;;;;;;;33.25;30.50;;;;;-147.17;100.00;59696.56;4979614;28;51325;-58
2021/07/02 08:41:24;;;;;;;;;33.00;30.50;;;;;-147.17;100.00;59696.56;4985407;28;51105;-59
2021/07/02 08:43:49;;;;;;;;;27.50;27.00;;;;;-147.17;100.00;59696.56;4986625;28;51883;-60
2021/07/02 08:46:18;;;;;;;;;27.25;26.25;;;;;-147.17;100.00;59696.56;4973265;28;51112;-61
2021/07/02 08:48:45;;;;;;;;;28.00;28.00;;;;;-147.17;100.00;59696.56;4972649;28;51134;-61
2021/07/02 08:51:11;;;;;;;;;25.25;25.25;;;;;-147.17;100.00;59696.56;4972847;28;51394;-60
2021/07/02 08:53:38;;;;;;;;;24.25;23.75;;;;;-147.17;100.00;59696.56;4971709;28;52349;-61
2021/07/02 08:56:04;;;;;;;;;26.00;25.00;;;;;-147.17;100.00;59696.56;4982306;28;51191;-61
2021/07/02 08:58:31;;;;;;;;;19.50;19.50;;;;;-147.17;100.00;59696.56;4974883;28;51134;-61
2021/07/02 09:00:57;;;;;;;;;27.50;26.25;;;;;-147.17;100.00;59696.56;4972763;28;51138;-61
2021/07/02 09:03:28;;;;;;;;;25.00;25.00;;;;;-147.17;100.00;59696.56;4972004;28;51806;-61
2021/07/02 09:05:54;;;;;;;;;20.25;19.75;;;;;-147.17;100.00;59696.56;4977270;28;51193;-73
2021/07/02 09:08:22;;;;;;;;;20.75;20.50;;;;;-147.17;100.00;59696.56;4987112;28;51132;-74
2021/07/02 09:10:47;;;;;;;;;24.75;22.75;;;;;-147.17;100.00;59696.56;4992310;28;51102;-73
2021/07/02 09:13:16;;;;;;;;;23.75;23.75;;;;;-147.17;100.00;59696.56;4973758;28;53853;-73
2021/07/02 09:15:47;;;;;;;;;21.75;21.00;;;;;-147.17;100.00;59696.56;4991740;28;50964;-73
2021/07/02 09:18:13;;;;;;;;;31.25;29.50;;;;;-147.17;100.00;59696.56;4974447;28;51037;-75
2021/07/02 09:20:41;;;;;;;;;17.25;16.75;;;;;-147.17;100.00;59696.56;4984108;28;52294;-76
2021/07/02 09:23:09;;;;;;;;;16.25;16.25;;;;;-147.17;100.00;59696.56;4973006;28;51939;-73
2021/07/02 09:25:50;;;;;;;;;15.25;15.25;;;;;-147.17;100.00;59696.56;4991134;28;51014;-74
2021/07/02 09:28:19;;;;;;;;;18.50;17.50;;;;;-147.17;100.00;59696.56;4974134;28;50951;-74
2021/07/02 09:30:47;;;;;;;;;16.50;16.25;;;;;-147.17;100.00;59696.56;4987406;28;50955;-73
2021/07/02 09:33:18;;;;;;;;;16.25;16.00;;;;;-147.17;100.00;59696.56;4971552;28;52177;-74
2021/07/02 09:35:49;;;;;;;;;14.00;13.50;;;;;-147.17;100.00;59696.56;4972037;28;51166;-73
2021/07/02 09:38:31;;;;;;;;;16.25;15.75;;;;;-147.17;100.00;59696.56;4985932;28;51054;-71
2021/07/02 09:40:56;;;;;;;;;14.75;14.00;;;;;-147.17;100.00;59696.56;4990658;28;65858;-71
2021/07/02 09:43:25;;;;;;;;;14.00;13.75;;;;;-147.17;100.00;59696.56;4991463;28;51721;-71
2021/07/02 09:45:55;;;;;;;;;15.00;14.00;;;;;-147.17;100.00;59696.56;4991562;28;51072;-72
2021/07/02 09:48:23;;;;;;;;;14.25;13.75;;;;;-147.17;100.00;59696.56;4991389;28;51067;-71
2021/07/02 09:50:52;;;;;;;;;15.00;15.00;;;;;-147.17;100.00;59696.56;4991147;28;51136;-72
2021/07/02 09:53:34;;;;;;;;;14.00;13.25;;;;;-147.17;100.00;59696.56;4990303;28;51938;-72
2021/07/02 09:56:03;;;;;;;;;16.00;14.50;;;;;-147.17;100.00;59696.56;4972428;28;51132;-72
2021/07/02 09:58:34;;;;;;;;;13.50;13.50;;;;;-147.17;100.00;59696.56;4971474;28;51099;-73
2021/07/02 10:01:01;;;;;;;;;16.25;16.25;;;;;-147.17;100.00;59696.56;4978824;28;51081;-73
2021/07/02 10:03:32;;;;;;;;;15.75;15.50;;;;;-147.17;100.00;59696.56;4990786;28;52083;-73
2021/07/02 10:06:01;;;;;;;;;14.25;14.25;;;;;-147.17;100.00;59696.56;4990848;28;50945;-73
2021/07/02 10:08:32;;;;;;;;;15.50;14.75;;;;;-147.17;100.00;59696.56;4990541;28;51061;-73
2021/07/02 10:10:59;;;;;;;;;15.75;15.25;;;;;-147.17;100.00;59696.56;4990345;28;50991;-73
2021/07/02 10:13:31;;;;;;;;;14.50;14.25;;;;;-147.17;100.00;59696.56;4990013;28;52029;-73
2021/07/02 10:15:58;;;;;;;;;13.50;13.50;;;;;-147.17;100.00;59696.56;4990719;28;51184;-73
2021/07/02 10:18:27;;;;;;;;;14.25;14.25;;;;;-147.17;100.00;59696.56;4989669;28;51021;-72
2021/07/02 10:20:55;;;;;;;;;19.75;19.50;;;;;-147.17;100.00;59696.56;4980777;28;51718;-72
2021/07/02 10:23:26;;;;;;;;;16.25;15.00;;;;;-147.17;100.00;59696.56;4986492;28;52024;-73
2021/07/02 10:25:54;;;;;;;;;16.00;15.50;;;;;-147.17;100.00;59696.56;4972701;28;51065;-73
2021/07/02 10:28:22;;;;;;;;;17.25;16.50;;;;;-147.17;100.00;59696.56;4972622;28;51123;-72
2021/07/02 10:30:47;;;;;;;;;16.25;16.25;;;;;-147.17;100.00;59696.56;4990682;28;51260;-72
2021/07/02 10:33:14;;;;;;;;;14.00;14.00;;;;;-147.17;100.00;59696.56;4990233;28;52379;-73
2021/07/02 10:35:44;;;;;;;;;15.33;15.33;;;;;-147.17;100.00;59696.56;4976297;28;51002;-73
2021/07/02 10:38:10;;;;;;;;;17.00;16.25;;;;;-147.17;100.00;59696.56;4994110;28;51255;-74
2021/07/02 10:40:42;;;;;;;;;19.75;19.75;;;;;-147.17;100.00;59696.56;4974571;28;51154;-74
2021/07/02 10:43:19;;;;;;;;;15.00;15.00;;;;;-147.17;100.00;59696.56;4980924;28;51842;-74
2021/07/02 10:46:19;;;;;;;;;17.75;17.25;;;;;-147.17;100.00;59696.56;4993641;28;50993;-75
2021/07/02 10:48:50;;;;;;;;;19.00;18.75;;;;;-147.17;100.00;59696.56;4933096;28;51039;-67
2021/07/02 10:51:31;;;;;;;;;21.75;21.75;;;;;-147.17;100.00;59696.56;4983113;28;51211;-73
2021/07/02 10:54:23;;;;;;;;;18.50;18.50;;;;;-147.17;100.00;59696.56;4992497;28;51709;-75
2021/07/02 10:56:56;;;;;;;;;19.75;18.25;;;;;-147.17;100.00;59696.56;4993553;28;51050;-74